createdAt,value
2023-04-03T00:02:23.908Z,99522.19
2023-04-03T00:04:51.121Z,99521.28
2023-04-03T00:07:17.614Z,99523.81
2023-04-03T00:09:44.063Z,99525.97
2023-04-03T00:12:11.665Z,99531.13
2023-04-03T00:14:38.120Z,99527.50
2023-04-03T00:17:04.637Z,99525.78
2023-04-03T00:19:31.264Z,99525.28
2023-04-03T00:21:57.820Z,99529.81
2023-04-03T00:24:24.276Z,99537.50
2023-04-03T00:26:50.915Z,99537.44
2023-04-03T00:29:17.377Z,99539.84
2023-04-03T00:31:43.944Z,99538.75
2023-04-03T00:34:11.057Z,99542.00
2023-04-03T00:36:38.001Z,99548.19
2023-04-03T00:39:04.510Z,99540.56
2023-04-03T00:41:31.128Z,99551.66
2023-04-03T00:43:57.626Z,99546.53
2023-04-03T00:46:24.133Z,99547.59
2023-04-03T00:48:50.761Z,99551.09
2023-04-03T00:51:24.809Z,99549.91
2023-04-03T00:54:01.731Z,99550.41
2023-04-03T00:56:28.275Z,99555.72
2023-04-03T00:59:04.285Z,99548.94
2023-04-03T01:01:31.629Z,99550.72
2023-04-03T01:04:00.628Z,99552.72
2023-04-03T01:06:33.914Z,99553.47
2023-04-03T01:09:00.601Z,99559.22
2023-04-03T01:11:27.981Z,99548.59
2023-04-03T01:13:54.499Z,99547.91
2023-04-03T01:16:21.268Z,99546.91
2023-04-03T01:18:47.804Z,99550.88
2023-04-03T01:21:32.502Z,99549.59
2023-04-03T01:24:29.042Z,99549.69
2023-04-03T01:26:55.536Z,99552.31
2023-04-03T01:29:22.012Z,99546.94
2023-04-03T01:32:17.878Z,99542.66
2023-04-03T01:34:44.345Z,99541.13
2023-04-03T01:37:10.816Z,99550.22
2023-04-03T01:39:37.320Z,99546.25
2023-04-03T01:42:04.673Z,99546.97
2023-04-03T01:44:31.177Z,99542.19
2023-04-03T01:46:57.687Z,99547.06
2023-04-03T01:49:24.153Z,99539.38
2023-04-03T01:51:50.625Z,99554.75
2023-04-03T01:54:17.111Z,99546.34
2023-04-03T01:56:43.627Z,99553.00
2023-04-03T01:59:10.157Z,99544.19
2023-04-03T02:01:37.244Z,99548.63
2023-04-03T02:04:04.055Z,99553.78
2023-04-03T02:06:30.594Z,99541.97
2023-04-03T02:08:57.069Z,99552.03
2023-04-03T02:11:23.557Z,99542.03
2023-04-03T02:13:50.040Z,99549.91
2023-04-03T02:16:16.809Z,99549.41
2023-04-03T02:18:43.686Z,99554.50
2023-04-03T02:21:10.162Z,99556.09
2023-04-03T02:23:37.883Z,99555.16
2023-04-03T02:26:08.669Z,99545.91
2023-04-03T02:28:35.222Z,99554.69
2023-04-03T02:31:01.817Z,99559.72
2023-04-03T02:33:28.308Z,99560.63
2023-04-03T02:35:56.225Z,99552.78
2023-04-03T02:38:23.262Z,99550.28
2023-04-03T02:40:49.737Z,99547.47
2023-04-03T02:43:16.200Z,99551.25
2023-04-03T02:45:42.682Z,99549.44
2023-04-03T02:48:09.220Z,99557.88
2023-04-03T02:50:36.201Z,99562.50
2023-04-03T02:53:02.847Z,99561.66
2023-04-03T02:55:29.323Z,99564.81
2023-04-03T02:57:55.854Z,99564.47
2023-04-03T03:00:22.429Z,99564.47
2023-04-03T03:02:49.791Z,99560.88
2023-04-03T03:05:16.596Z,99563.41
2023-04-03T03:07:43.108Z,99564.97
2023-04-03T03:10:09.798Z,99561.50
2023-04-03T03:12:36.268Z,99577.00
2023-04-03T03:15:03.025Z,99574.66
2023-04-03T03:17:29.640Z,99572.00
2023-04-03T03:19:56.643Z,99568.19
2023-04-03T03:22:23.112Z,99569.06
2023-04-03T03:24:49.696Z,99586.16
2023-04-03T03:27:17.105Z,99583.38
2023-04-03T03:29:43.705Z,99585.47
2023-04-03T03:32:10.186Z,99594.56
2023-04-03T03:34:36.693Z,99586.75
2023-04-03T03:37:03.239Z,99586.03
2023-04-03T03:39:29.764Z,99590.78
2023-04-03T03:41:56.234Z,99574.88
2023-04-03T03:44:22.713Z,99578.75
2023-04-03T03:46:49.289Z,99582.38
2023-04-03T03:49:15.849Z,99578.00
2023-04-03T03:51:42.309Z,99582.06
2023-04-03T03:54:08.784Z,99579.47
2023-04-03T03:56:35.288Z,99575.94
2023-04-03T03:59:01.763Z,99590.53
2023-04-03T04:01:28.318Z,99587.84
2023-04-03T04:03:57.699Z,99596.00
2023-04-03T04:06:24.272Z,99590.94
2023-04-03T04:08:50.839Z,99595.44
2023-04-03T04:11:17.343Z,99594.00
2023-04-03T04:13:43.824Z,99591.03
2023-04-03T04:16:10.838Z,99590.72
2023-04-03T04:18:37.359Z,99594.25
2023-04-03T04:21:03.839Z,99586.00
2023-04-03T04:23:30.452Z,99595.06
2023-04-03T04:25:56.923Z,99590.84
2023-04-03T04:28:23.404Z,99593.59
2023-04-03T04:30:49.909Z,99590.38
2023-04-03T04:33:17.145Z,99599.88
2023-04-03T04:35:44.592Z,99595.38
2023-04-03T04:38:11.450Z,99599.25
2023-04-03T04:40:38.673Z,99598.53
2023-04-03T04:43:05.851Z,99599.13
2023-04-03T04:45:32.428Z,99598.44
2023-04-03T04:47:59.260Z,99602.81
2023-04-03T04:50:25.811Z,99596.88
2023-04-03T04:52:52.309Z,99609.41
2023-04-03T04:55:18.878Z,99612.28
2023-04-03T04:57:45.833Z,99615.81
2023-04-03T05:00:13.002Z,99621.38
2023-04-03T05:02:39.566Z,99626.47
2023-04-03T05:05:06.480Z,99621.03
2023-04-03T05:07:33.003Z,99628.72
2023-04-03T05:09:59.493Z,99623.63
2023-04-03T05:12:25.949Z,99626.25
2023-04-03T05:14:52.414Z,99621.34
2023-04-03T05:17:18.873Z,99626.09
2023-04-03T05:19:45.478Z,99637.53
2023-04-03T05:22:12.032Z,99631.97
2023-04-03T05:24:38.576Z,99621.91
2023-04-03T05:27:05.118Z,99631.25
2023-04-03T05:29:31.611Z,99628.66
2023-04-03T05:31:58.208Z,99623.56
2023-04-03T05:34:24.723Z,99631.38
2023-04-03T05:36:51.229Z,99635.81
2023-04-03T05:39:18.002Z,99637.00
2023-04-03T05:41:44.487Z,99645.66
2023-04-03T05:44:11.032Z,99647.78
2023-04-03T05:46:37.496Z,99649.75
2023-04-03T05:49:04.019Z,99651.50
2023-04-03T05:51:33.106Z,99649.84
2023-04-03T05:54:24.217Z,99660.97
2023-04-03T05:56:51.381Z,99664.75
2023-04-03T05:59:18.422Z,99669.22
2023-04-03T06:01:44.935Z,99665.28
2023-04-03T06:04:11.854Z,99668.00
2023-04-03T06:06:55.644Z,99666.16
2023-04-03T06:09:24.947Z,99674.81
2023-04-03T06:11:52.184Z,99681.09
2023-04-03T06:14:18.756Z,99671.69
2023-04-03T06:16:45.604Z,99672.34
2023-04-03T06:19:12.580Z,99676.97
2023-04-03T06:21:39.162Z,99678.16
2023-04-03T06:24:05.929Z,99671.97
2023-04-03T06:26:32.846Z,99679.50
2023-04-03T06:28:59.382Z,99687.03
2023-04-03T06:31:25.941Z,99689.91
2023-04-03T06:33:52.580Z,99683.63
2023-04-03T06:36:22.806Z,99685.00
2023-04-03T06:38:49.436Z,99686.66
2023-04-03T06:41:17.274Z,99691.75
2023-04-03T06:43:44.714Z,99686.66
2023-04-03T06:46:18.347Z,99700.44
2023-04-03T06:48:45.182Z,99697.56
2023-04-03T06:51:25.683Z,99702.47
2023-04-03T06:53:53.070Z,99701.16
2023-04-03T06:56:19.542Z,99707.88
2023-04-03T06:58:46.133Z,99703.88
2023-04-03T07:01:13.310Z,99712.56
2023-04-03T07:03:39.834Z,99714.50
2023-04-03T07:06:07.863Z,99722.41
2023-04-03T07:08:34.656Z,99726.53
2023-04-03T07:11:01.486Z,99730.59
2023-04-03T07:13:28.295Z,99724.81
2023-04-03T07:15:55.216Z,99723.47
2023-04-03T07:18:22.306Z,99736.38
2023-04-03T07:20:48.856Z,99741.34
2023-04-03T07:23:15.672Z,99738.84
2023-04-03T07:25:46.067Z,99745.72
2023-04-03T07:28:12.844Z,99745.28
2023-04-03T07:30:46.825Z,99739.81
2023-04-03T07:33:14.072Z,99759.13
2023-04-03T07:35:41.230Z,99761.66
2023-04-03T07:38:07.910Z,99767.31
2023-04-03T07:40:34.923Z,99764.19
2023-04-03T07:43:01.679Z,99757.28
2023-04-03T07:45:28.328Z,99765.09
2023-04-03T07:47:54.905Z,99764.88
2023-04-03T07:50:21.663Z,99757.25
2023-04-03T07:52:48.636Z,99764.22
2023-04-03T07:55:15.486Z,99756.47
2023-04-03T07:57:42.152Z,99759.63
2023-04-03T08:00:09.894Z,99771.56
2023-04-03T08:02:36.433Z,99768.50
2023-04-03T08:05:03.005Z,99771.59
2023-04-03T08:07:29.565Z,99761.06
2023-04-03T08:09:56.173Z,99768.91
2023-04-03T08:12:25.762Z,99767.19
2023-04-03T08:14:52.252Z,99759.28
2023-04-03T08:17:18.723Z,99761.91
2023-04-03T08:19:45.228Z,99759.88
2023-04-03T08:22:12.061Z,99764.19
2023-04-03T08:24:41.034Z,99757.31
2023-04-03T08:27:09.681Z,99759.47
2023-04-03T08:29:38.621Z,99748.84
2023-04-03T08:32:05.981Z,99758.41
2023-04-03T08:34:35.737Z,99739.13
2023-04-03T08:37:02.498Z,99741.78
2023-04-03T08:39:29.131Z,99746.34
2023-04-03T08:41:56.848Z,99741.66
2023-04-03T08:44:45.437Z,99756.22
2023-04-03T08:47:31.328Z,99740.16
2023-04-03T08:50:01.488Z,99765.75
2023-04-03T08:52:37.803Z,99754.78
2023-04-03T08:55:29.481Z,99763.28
2023-04-03T08:58:06.749Z,99761.16
2023-04-03T09:00:54.825Z,99761.66
2023-04-03T09:03:22.522Z,99756.03
2023-04-03T09:05:59.512Z,99760.50
2023-04-03T09:08:34.068Z,99759.50
2023-04-03T09:11:23.017Z,99746.50
2023-04-03T09:13:56.594Z,99755.13
2023-04-03T09:16:41.005Z,99756.34
2023-04-03T09:19:13.953Z,99744.59
2023-04-03T09:21:43.361Z,99747.69
2023-04-03T09:24:11.720Z,99742.75
2023-04-03T09:26:52.528Z,99721.31
2023-04-03T09:29:21.580Z,99744.13
2023-04-03T09:31:49.741Z,99737.25
2023-04-03T09:34:23.594Z,99737.81
2023-04-03T09:36:52.387Z,99741.66
2023-04-03T09:39:21.332Z,99732.28
2023-04-03T09:41:58.250Z,99727.56
2023-04-03T09:44:39.862Z,99705.63
2023-04-03T09:47:39.074Z,99715.13
2023-04-03T09:50:15.160Z,99706.94
2023-04-03T09:52:43.486Z,99696.03
2023-04-03T09:55:14.861Z,99693.78
2023-04-03T09:57:41.800Z,99706.13
2023-04-03T10:00:24.502Z,99684.63
2023-04-03T10:02:57.822Z,99684.56
2023-04-03T10:05:36.369Z,99678.38
2023-04-03T10:08:15.033Z,99689.53
2023-04-03T10:10:46.579Z,99696.28
2023-04-03T10:13:20.226Z,99712.94
2023-04-03T10:15:55.693Z,99725.50
2023-04-03T10:18:28.556Z,99713.47
2023-04-03T10:20:55.218Z,99712.75
2023-04-03T10:23:30.465Z,99711.69
2023-04-03T10:26:45.078Z,99705.88
2023-04-03T10:29:32.479Z,99682.88
2023-04-03T10:32:18.146Z,99701.81
2023-04-03T10:34:49.085Z,99690.81
2023-04-03T10:37:25.341Z,99695.53
2023-04-03T10:40:32.204Z,99695.88
2023-04-03T10:43:48.160Z,99689.72
2023-04-03T10:46:19.506Z,99676.81
2023-04-03T10:49:08.338Z,99691.34
2023-04-03T10:52:02.057Z,99695.69
2023-04-03T10:54:35.505Z,99686.25
2023-04-03T10:57:12.573Z,99686.13
2023-04-03T11:00:00.134Z,99685.59
2023-04-03T11:02:37.626Z,99682.59
2023-04-03T11:05:16.793Z,99680.09
2023-04-03T11:07:51.421Z,99672.34
2023-04-03T11:10:43.876Z,99654.34
2023-04-03T11:13:16.756Z,99670.00
2023-04-03T11:15:45.486Z,99674.16
2023-04-03T11:18:14.805Z,99683.59
2023-04-03T11:20:43.202Z,99655.47
2023-04-03T11:23:35.650Z,99643.03
2023-04-03T11:26:13.711Z,99639.81
2023-04-03T11:28:40.202Z,99666.34
2023-04-03T11:31:33.462Z,99630.63
2023-04-03T11:34:15.583Z,99637.75
2023-04-03T11:36:54.711Z,99621.44
2023-04-03T11:39:32.923Z,99607.44
2023-04-03T11:42:38.606Z,99633.09
2023-04-03T11:45:24.402Z,99642.25
2023-04-03T11:48:23.214Z,99629.69
2023-04-03T11:50:51.413Z,99641.41
2023-04-03T11:53:17.766Z,99654.03
2023-04-03T11:55:53.139Z,99627.69
2023-04-03T11:58:23.453Z,99617.69
2023-04-03T12:00:55.100Z,99627.13
2023-04-03T12:03:24.647Z,99634.81
2023-04-03T12:06:01.194Z,99633.50
2023-04-03T12:08:29.093Z,99636.22
2023-04-03T12:11:10.862Z,99605.69
2023-04-03T12:13:49.991Z,99607.75
2023-04-03T12:16:23.298Z,99612.34
2023-04-03T12:18:49.697Z,99594.63
2023-04-03T12:21:20.141Z,99608.94
2023-04-03T12:24:09.726Z,99606.44
2023-04-03T12:26:52.368Z,99599.38
2023-04-03T12:29:40.782Z,99596.75
2023-04-03T12:32:26.503Z,99602.44
2023-04-03T12:35:11.456Z,99604.31
2023-04-03T12:38:12.722Z,99604.13
2023-04-03T12:40:44.063Z,99600.72
2023-04-03T12:43:18.326Z,99580.66
2023-04-03T12:45:49.692Z,99590.31
2023-04-03T12:48:17.775Z,99593.28
2023-04-03T12:50:45.950Z,99591.03
2023-04-03T12:53:19.019Z,99585.00
2023-04-03T12:55:45.478Z,99588.81
2023-04-03T12:58:16.328Z,99579.28
2023-04-03T13:00:42.799Z,99571.41
2023-04-03T13:03:24.159Z,99558.88
2023-04-03T13:05:51.129Z,99560.88
2023-04-03T13:08:17.863Z,99575.16
2023-04-03T13:11:12.668Z,99572.56
2023-04-03T13:13:40.365Z,99578.97
2023-04-03T13:16:11.455Z,99592.16
2023-04-03T13:18:38.247Z,99558.53
2023-04-03T13:21:11.294Z,99540.13
2023-04-03T13:23:39.525Z,99544.00
2023-04-03T13:26:06.014Z,99537.78
2023-04-03T13:28:32.863Z,99519.88
2023-04-03T13:31:16.263Z,99536.22
2023-04-03T13:33:53.270Z,99528.56
2023-04-03T13:36:21.601Z,99533.53
2023-04-03T13:38:58.966Z,99536.56
2023-04-03T13:41:33.870Z,99540.03
2023-04-03T13:44:24.537Z,99524.09
2023-04-03T13:46:56.222Z,99522.00
2023-04-03T13:49:36.942Z,99524.25
2023-04-03T13:52:23.045Z,99512.47
2023-04-03T13:54:53.549Z,99533.31
2023-04-03T13:57:20.141Z,99530.22
2023-04-03T13:59:46.643Z,99519.25
2023-04-03T14:02:33.475Z,99519.69
2023-04-03T14:05:02.326Z,99504.94
2023-04-03T14:07:30.203Z,99506.91
2023-04-03T14:09:56.672Z,99502.94
2023-04-03T14:12:34.534Z,99515.09
2023-04-03T14:15:01.912Z,99519.47
2023-04-03T14:17:29.423Z,99524.09
2023-04-03T14:19:56.513Z,99515.84
2023-04-03T14:22:25.904Z,99485.91
2023-04-03T14:24:52.781Z,99499.19
2023-04-03T14:27:39.030Z,99475.03
2023-04-03T14:30:07.473Z,99494.34
2023-04-03T14:32:34.144Z,99486.50
2023-04-03T14:35:01.481Z,99491.09
2023-04-03T14:37:30.593Z,99481.84
2023-04-03T14:39:57.466Z,99491.34
2023-04-03T14:42:28.630Z,99486.03
2023-04-03T14:44:55.184Z,99491.53
2023-04-03T14:47:30.684Z,99489.13
2023-04-03T14:50:01.859Z,99480.75
2023-04-03T14:52:31.355Z,99476.59
2023-04-03T14:54:58.141Z,99478.38
2023-04-03T14:57:26.248Z,99469.97
2023-04-03T14:59:52.797Z,99483.25
2023-04-03T15:02:25.702Z,99470.06
2023-04-03T15:04:53.660Z,99470.84
2023-04-03T15:07:20.365Z,99485.47
2023-04-03T15:09:46.879Z,99479.28
2023-04-03T15:14:51.832Z,99481.00
2023-04-03T15:17:21.895Z,99485.56
2023-04-03T15:19:48.421Z,99479.56
2023-04-03T15:22:20.175Z,99469.34
2023-04-03T15:24:46.930Z,99476.19
2023-04-03T15:27:13.893Z,99484.56
2023-04-03T15:29:40.674Z,99467.44
2023-04-03T15:32:07.197Z,99462.41
2023-04-03T15:34:33.703Z,99470.88
2023-04-03T15:37:00.272Z,99489.06
2023-04-03T15:39:27.212Z,99474.88
2023-04-03T15:41:54.764Z,99468.75
2023-04-03T15:44:22.531Z,99482.16
2023-04-03T15:46:49.804Z,99468.66
2023-04-03T15:49:16.558Z,99467.94
2023-04-03T15:51:43.042Z,99486.69
2023-04-03T15:54:09.650Z,99482.50
2023-04-03T15:56:36.133Z,99468.63
2023-04-03T15:59:02.596Z,99465.94
2023-04-03T16:01:29.144Z,99457.91
2023-04-03T16:03:55.665Z,99460.75
2023-04-03T16:06:22.129Z,99459.41
2023-04-03T16:08:48.697Z,99458.25
2023-04-03T16:11:15.398Z,99468.19
2023-04-03T16:13:41.872Z,99475.34
2023-04-03T16:16:08.378Z,99460.00
2023-04-03T16:18:35.240Z,99469.84
2023-04-03T16:21:01.767Z,99470.22
2023-04-03T16:23:28.247Z,99464.91
2023-04-03T16:25:54.778Z,99469.00
2023-04-03T16:28:21.270Z,99476.91
2023-04-03T16:30:47.733Z,99476.06
2023-04-03T16:33:14.235Z,99478.84
2023-04-03T16:35:42.808Z,99483.09
2023-04-03T16:38:09.476Z,99471.75
2023-04-03T16:40:35.975Z,99487.84
2023-04-03T16:43:02.876Z,99483.31
2023-04-03T16:45:29.352Z,99480.84
2023-04-03T16:47:55.854Z,99480.34
2023-04-03T16:50:22.673Z,99477.34
2023-04-03T16:52:49.261Z,99486.69
2023-04-03T16:55:15.939Z,99485.66
2023-04-03T16:57:42.434Z,99475.22
2023-04-03T17:00:10.762Z,99478.78
2023-04-03T17:02:37.292Z,99476.63
2023-04-03T17:05:03.960Z,99484.59
2023-04-03T17:07:30.590Z,99477.69
2023-04-03T17:09:57.254Z,99477.75
2023-04-03T17:12:23.948Z,99468.41
2023-04-03T17:14:50.855Z,99462.66
2023-04-03T17:17:20.108Z,99465.13
2023-04-03T17:19:46.605Z,99470.25
2023-04-03T17:22:13.112Z,99463.41
2023-04-03T17:24:39.686Z,99458.44
2023-04-03T17:27:06.157Z,99460.44
2023-04-03T17:29:32.650Z,99461.81
2023-04-03T17:31:59.264Z,99463.50
2023-04-03T17:34:25.820Z,99470.06
2023-04-03T17:36:52.309Z,99462.38
2023-04-03T17:39:18.807Z,99473.72
2023-04-03T17:41:46.023Z,99470.47
2023-04-03T17:44:12.947Z,99471.84
2023-04-03T17:46:39.537Z,99474.88
2023-04-03T17:49:06.146Z,99486.19
2023-04-03T17:51:34.444Z,99484.00
2023-04-03T17:54:01.072Z,99482.91
2023-04-03T17:56:27.588Z,99486.25
2023-04-03T17:58:58.346Z,99486.25
2023-04-03T18:01:29.627Z,99487.41
2023-04-03T18:03:58.657Z,99493.72
2023-04-03T18:06:33.785Z,99487.19
2023-04-03T18:09:08.782Z,99484.69
2023-04-03T18:11:35.336Z,99497.03
2023-04-03T18:14:02.543Z,99490.19
2023-04-03T18:16:29.460Z,99494.59
2023-04-03T18:19:06.854Z,99491.59
2023-04-03T18:21:45.668Z,99497.91
2023-04-03T18:24:13.356Z,99499.56
2023-04-03T18:26:41.524Z,99505.31
2023-04-03T18:29:09.152Z,99511.09
2023-04-03T18:31:35.950Z,99519.28
2023-04-03T18:34:02.436Z,99513.28
2023-04-03T18:36:28.940Z,99522.84
2023-04-03T18:38:55.580Z,99532.94
2023-04-03T18:41:23.011Z,99530.19
2023-04-03T18:43:49.510Z,99530.63
2023-04-03T18:46:16.063Z,99537.72
2023-04-03T18:48:42.612Z,99513.41
2023-04-03T18:51:10.325Z,99537.75
2023-04-03T18:53:36.792Z,99526.22
2023-04-03T18:56:03.563Z,99540.66
2023-04-03T18:58:30.061Z,99535.50
2023-04-03T19:00:56.636Z,99531.38
2023-04-03T19:03:23.250Z,99540.66
2023-04-03T19:05:49.861Z,99539.00
2023-04-03T19:08:16.317Z,99552.22
2023-04-03T19:10:43.064Z,99554.47
2023-04-03T19:13:09.545Z,99541.38
2023-04-03T19:15:36.191Z,99538.66
2023-04-03T19:18:02.748Z,99541.44
2023-04-03T19:20:29.266Z,99541.19
2023-04-03T19:22:55.849Z,99553.47
2023-04-03T19:25:22.386Z,99533.69
2023-04-03T19:27:48.912Z,99538.31
2023-04-03T19:30:15.560Z,99530.41
2023-04-03T19:32:42.034Z,99536.69
2023-04-03T19:35:08.896Z,99539.59
2023-04-03T19:37:35.456Z,99540.72
2023-04-03T19:40:02.004Z,99535.72
2023-04-03T19:42:29.010Z,99531.75
2023-04-03T19:44:55.660Z,99537.22
2023-04-03T19:47:22.286Z,99535.50
2023-04-03T19:49:49.103Z,99533.34
2023-04-03T19:52:15.604Z,99534.53
2023-04-03T19:54:42.367Z,99536.88
2023-04-03T19:57:08.824Z,99528.22
2023-04-03T19:59:35.473Z,99533.19
2023-04-03T20:02:02.143Z,99538.19
2023-04-03T20:04:28.664Z,99535.91
2023-04-03T20:06:55.132Z,99535.75
2023-04-03T20:09:22.302Z,99529.59
2023-04-03T20:11:48.770Z,99535.69
2023-04-03T20:14:16.585Z,99537.34
2023-04-03T20:16:43.718Z,99523.06
2023-04-03T20:19:10.469Z,99530.94
2023-04-03T20:21:37.325Z,99529.41
2023-04-03T20:24:05.489Z,99531.53
2023-04-03T20:26:32.336Z,99530.16
2023-04-03T20:28:59.969Z,99533.78
2023-04-03T20:31:26.802Z,99535.81
2023-04-03T20:33:53.357Z,99533.53
2023-04-03T20:36:20.770Z,99521.88
2023-04-03T20:38:47.966Z,99529.41
2023-04-03T20:41:15.450Z,99516.97
2023-04-03T20:43:42.842Z,99523.53
2023-04-03T20:46:10.938Z,99516.97
2023-04-03T20:48:37.482Z,99524.16
2023-04-03T20:51:11.372Z,99522.44
2023-04-03T20:53:38.528Z,99517.97
2023-04-03T20:56:05.227Z,99521.16
2023-04-03T20:58:33.702Z,99511.31
2023-04-03T21:01:00.241Z,99516.25
2023-04-03T21:03:28.114Z,99499.97
2023-04-03T21:06:00.891Z,99513.13
2023-04-03T21:09:05.398Z,99508.16
2023-04-03T21:12:09.481Z,99509.13
2023-04-03T21:15:13.681Z,99511.31
2023-04-03T21:18:08.753Z,99507.09
2023-04-03T21:20:35.526Z,99501.34
2023-04-03T21:23:02.008Z,99499.38
2023-04-03T21:25:28.486Z,99496.97
2023-04-03T21:27:55.033Z,99493.16
2023-04-03T21:30:22.728Z,99479.94
2023-04-03T21:32:49.255Z,99478.28
2023-04-03T21:35:15.787Z,99487.78
2023-04-03T21:37:42.258Z,99493.19
2023-04-03T21:40:08.985Z,99487.03
2023-04-03T21:42:36.531Z,99486.31
2023-04-03T21:45:03.153Z,99482.75
2023-04-03T21:47:29.658Z,99486.16
2023-04-03T21:49:56.532Z,99478.41
2023-04-03T21:52:22.990Z,99469.75
2023-04-03T21:54:49.727Z,99465.63
2023-04-03T21:57:16.196Z,99464.53
2023-04-03T21:59:43.096Z,99462.97
2023-04-03T22:02:09.780Z,99469.69
2023-04-03T22:04:36.329Z,99471.69
2023-04-03T22:07:03.472Z,99460.75
2023-04-03T22:09:29.958Z,99460.88
2023-04-03T22:11:57.069Z,99452.41
2023-04-03T22:14:23.592Z,99458.00
2023-04-03T22:16:50.792Z,99458.66
2023-04-03T22:19:17.266Z,99458.44
2023-04-03T22:21:43.774Z,99449.19
2023-04-03T22:24:10.274Z,99453.22
2023-04-03T22:26:36.747Z,99445.09
2023-04-03T22:29:03.713Z,99451.31
2023-04-03T22:31:30.251Z,99446.75
2023-04-03T22:33:56.800Z,99451.25
2023-04-03T22:36:23.311Z,99455.97
2023-04-03T22:38:49.781Z,99459.59
2023-04-03T22:41:16.487Z,99475.00
2023-04-03T22:43:43.230Z,99463.00
2023-04-03T22:46:09.797Z,99458.56
2023-04-03T22:48:37.309Z,99459.63
2023-04-03T22:51:07.481Z,99460.41
2023-04-03T22:53:34.499Z,99464.41
2023-04-03T22:56:01.997Z,99464.56
2023-04-03T22:58:28.749Z,99463.09
2023-04-03T23:00:56.671Z,99459.59
2023-04-03T23:03:23.410Z,99453.75
2023-04-03T23:05:52.887Z,99450.63
2023-04-03T23:08:19.402Z,99448.28
2023-04-03T23:10:46.117Z,99445.78
2023-04-03T23:13:12.602Z,99448.50
2023-04-03T23:15:39.079Z,99451.78
2023-04-03T23:18:05.690Z,99450.78
2023-04-03T23:20:32.234Z,99456.47
2023-04-03T23:22:58.820Z,99451.53
2023-04-03T23:25:25.366Z,99448.22
2023-04-03T23:27:52.700Z,99443.56
2023-04-03T23:30:20.610Z,99456.22
2023-04-03T23:32:47.965Z,99458.63
2023-04-03T23:35:14.512Z,99465.22
2023-04-03T23:37:41.172Z,99463.63
2023-04-03T23:40:08.339Z,99466.78
2023-04-03T23:42:34.823Z,99460.78
2023-04-03T23:45:01.360Z,99460.72
2023-04-03T23:47:27.910Z,99462.75
2023-04-03T23:49:54.413Z,99468.41
2023-04-03T23:52:21.114Z,99468.09
2023-04-03T23:54:49.382Z,99465.88
2023-04-03T23:57:16.468Z,99460.28
2023-04-03T23:59:42.951Z,99470.34
